sensor_id;sensor_type;location;lat;lon;timestamp;P1;durP1;ratioP1;P2;durP2;ratioP2
4616;SDS011;2321;42.704;23.384;2022-08-21T00:00:58;3.80;;;3.27;;
4616;SDS011;2321;42.704;23.384;2022-08-21T00:03:26;5.73;;;3.47;;
4616;SDS011;2321;42.704;23.384;2022-08-21T00:05:53;3.50;;;3.20;;
4616;SDS011;2321;42.704;23.384;2022-08-21T00:08:20;4.20;;;3.17;;
4616;SDS011;2321;42.704;23.384;2022-08-21T00:10:47;2.47;;;2.37;;
4616;SDS011;2321;42.704;23.384;2022-08-21T00:13:16;12.10;;;4.00;;
4616;SDS011;2321;42.704;23.384;2022-08-21T00:15:45;4.00;;;3.40;;
4616;SDS011;2321;42.704;23.384;2022-08-21T00:18:12;5.73;;;3.37;;
4616;SDS011;2321;42.704;23.384;2022-08-21T00:20:40;5.80;;;4.83;;
4616;SDS011;2321;42.704;23.384;2022-08-21T00:23:09;11.23;;;4.57;;
4616;SDS011;2321;42.704;23.384;2022-08-21T00:25:36;4.30;;;3.73;;
4616;SDS011;2321;42.704;23.384;2022-08-21T00:28:04;7.20;;;3.37;;
4616;SDS011;2321;42.704;23.384;2022-08-21T00:30:33;6.50;;;4.90;;
4616;SDS011;2321;42.704;23.384;2022-08-21T00:33:01;7.00;;;5.40;;
4616;SDS011;2321;42.704;23.384;2022-08-21T00:35:29;7.50;;;4.20;;
4616;SDS011;2321;42.704;23.384;2022-08-21T00:37:58;10.50;;;5.23;;
4616;SDS011;2321;42.704;23.384;2022-08-21T00:40:27;4.93;;;3.60;;
4616;SDS011;2321;42.704;23.384;2022-08-21T00:42:56;7.03;;;5.10;;
4616;SDS011;2321;42.704;23.384;2022-08-21T00:45:24;8.70;;;4.63;;
4616;SDS011;2321;42.704;23.384;2022-08-21T00:47:54;5.80;;;4.53;;
4616;SDS011;2321;42.704;23.384;2022-08-21T00:50:21;8.10;;;5.00;;
4616;SDS011;2321;42.704;23.384;2022-08-21T00:52:50;13.80;;;5.30;;
4616;SDS011;2321;42.704;23.384;2022-08-21T00:55:19;10.43;;;4.77;;
4616;SDS011;2321;42.704;23.384;2022-08-21T00:57:49;18.20;;;5.50;;
4616;SDS011;2321;42.704;23.384;2022-08-21T01:00:19;8.20;;;5.07;;
4616;SDS011;2321;42.704;23.384;2022-08-21T01:02:49;13.13;;;5.60;;
4616;SDS011;2321;42.704;23.384;2022-08-21T01:05:18;17.20;;;6.70;;
4616;SDS011;2321;42.704;23.384;2022-08-21T01:07:45;9.43;;;5.43;;
4616;SDS011;2321;42.704;23.384;2022-08-21T01:10:12;11.77;;;7.03;;
4616;SDS011;2321;42.704;23.384;2022-08-21T01:12:40;8.40;;;6.03;;
4616;SDS011;2321;42.704;23.384;2022-08-21T01:15:08;19.10;;;8.17;;
4616;SDS011;2321;42.704;23.384;2022-08-21T01:17:36;18.90;;;7.13;;
4616;SDS011;2321;42.704;23.384;2022-08-21T01:20:05;14.50;;;6.60;;
4616;SDS011;2321;42.704;23.384;2022-08-21T01:22:35;8.40;;;5.50;;
4616;SDS011;2321;42.704;23.384;2022-08-21T01:25:03;10.17;;;5.83;;
4616;SDS011;2321;42.704;23.384;2022-08-21T01:27:35;11.23;;;6.70;;
4616;SDS011;2321;42.704;23.384;2022-08-21T01:30:07;11.73;;;6.47;;
4616;SDS011;2321;42.704;23.384;2022-08-21T01:32:38;15.03;;;6.10;;
4616;SDS011;2321;42.704;23.384;2022-08-21T01:35:06;21.57;;;8.17;;
4616;SDS011;2321;42.704;23.384;2022-08-21T01:37:35;26.17;;;10.20;;
4616;SDS011;2321;42.704;23.384;2022-08-21T01:40:03;13.57;;;8.03;;
4616;SDS011;2321;42.704;23.384;2022-08-21T01:42:31;14.93;;;7.40;;
4616;SDS011;2321;42.704;23.384;2022-08-21T01:44:58;16.93;;;7.23;;
4616;SDS011;2321;42.704;23.384;2022-08-21T01:47:25;13.30;;;7.70;;
4616;SDS011;2321;42.704;23.384;2022-08-21T01:49:52;16.23;;;7.20;;
4616;SDS011;2321;42.704;23.384;2022-08-21T01:52:19;17.67;;;7.50;;
4616;SDS011;2321;42.704;23.384;2022-08-21T01:54:47;17.10;;;7.60;;
4616;SDS011;2321;42.704;23.384;2022-08-21T01:57:15;13.93;;;6.93;;
4616;SDS011;2321;42.704;23.384;2022-08-21T01:59:42;17.87;;;7.50;;
4616;SDS011;2321;42.704;23.384;2022-08-21T02:02:09;11.20;;;7.30;;
4616;SDS011;2321;42.704;23.384;2022-08-21T02:04:36;10.47;;;6.13;;
4616;SDS011;2321;42.704;23.384;2022-08-21T02:07:03;9.40;;;6.17;;
4616;SDS011;2321;42.704;23.384;2022-08-21T02:09:30;16.00;;;6.87;;
4616;SDS011;2321;42.704;23.384;2022-08-21T02:11:59;7.90;;;5.53;;
4616;SDS011;2321;42.704;23.384;2022-08-21T02:14:26;11.67;;;6.83;;
4616;SDS011;2321;42.704;23.384;2022-08-21T02:16:53;20.63;;;6.63;;
4616;SDS011;2321;42.704;23.384;2022-08-21T02:19:20;11.43;;;5.83;;
4616;SDS011;2321;42.704;23.384;2022-08-21T02:21:47;10.23;;;5.77;;
4616;SDS011;2321;42.704;23.384;2022-08-21T02:24:14;10.43;;;7.23;;
4616;SDS011;2321;42.704;23.384;2022-08-21T02:26:41;10.40;;;6.40;;
4616;SDS011;2321;42.704;23.384;2022-08-21T02:29:10;15.93;;;7.17;;
4616;SDS011;2321;42.704;23.384;2022-08-21T02:31:37;12.70;;;5.77;;
4616;SDS011;2321;42.704;23.384;2022-08-21T02:34:04;10.93;;;6.27;;
4616;SDS011;2321;42.704;23.384;2022-08-21T02:36:31;10.67;;;6.00;;
4616;SDS011;2321;42.704;23.384;2022-08-21T02:38:58;9.63;;;7.00;;
4616;SDS011;2321;42.704;23.384;2022-08-21T02:41:25;10.77;;;5.97;;
4616;SDS011;2321;42.704;23.384;2022-08-21T02:43:52;7.90;;;5.10;;
4616;SDS011;2321;42.704;23.384;2022-08-21T02:46:21;16.87;;;6.60;;
4616;SDS011;2321;42.704;23.384;2022-08-21T02:48:49;13.30;;;7.07;;
4616;SDS011;2321;42.704;23.384;2022-08-21T02:51:16;9.67;;;6.00;;
4616;SDS011;2321;42.704;23.384;2022-08-21T02:53:45;10.97;;;7.60;;
4616;SDS011;2321;42.704;23.384;2022-08-21T02:56:14;10.00;;;6.83;;
4616;SDS011;2321;42.704;23.384;2022-08-21T02:58:43;11.37;;;5.73;;
4616;SDS011;2321;42.704;23.384;2022-08-21T03:01:13;11.27;;;7.03;;
4616;SDS011;2321;42.704;23.384;2022-08-21T03:03:42;9.63;;;6.13;;
4616;SDS011;2321;42.704;23.384;2022-08-21T03:06:11;11.63;;;7.37;;
4616;SDS011;2321;42.704;23.384;2022-08-21T03:08:40;10.00;;;5.60;;
4616;SDS011;2321;42.704;23.384;2022-08-21T03:11:10;11.93;;;6.60;;
4616;SDS011;2321;42.704;23.384;2022-08-21T03:13:37;12.37;;;6.93;;
4616;SDS011;2321;42.704;23.384;2022-08-21T03:16:05;11.63;;;6.83;;
4616;SDS011;2321;42.704;23.384;2022-08-21T03:18:32;13.93;;;7.03;;
4616;SDS011;2321;42.704;23.384;2022-08-21T03:21:02;11.03;;;6.60;;
4616;SDS011;2321;42.704;23.384;2022-08-21T03:23:30;9.80;;;6.77;;
4616;SDS011;2321;42.704;23.384;2022-08-21T03:25:57;16.60;;;5.93;;
4616;SDS011;2321;42.704;23.384;2022-08-21T03:28:25;11.67;;;6.00;;
4616;SDS011;2321;42.704;23.384;2022-08-21T03:30:52;12.43;;;7.00;;
4616;SDS011;2321;42.704;23.384;2022-08-21T03:33:20;9.77;;;4.47;;
4616;SDS011;2321;42.704;23.384;2022-08-21T03:35:50;7.20;;;5.33;;
4616;SDS011;2321;42.704;23.384;2022-08-21T03:38:24;9.43;;;5.33;;
4616;SDS011;2321;42.704;23.384;2022-08-21T03:40:53;7.07;;;5.57;;
4616;SDS011;2321;42.704;23.384;2022-08-21T03:43:20;7.00;;;5.00;;
4616;SDS011;2321;42.704;23.384;2022-08-21T03:45:48;8.17;;;5.57;;
4616;SDS011;2321;42.704;23.384;2022-08-21T03:48:15;9.97;;;5.03;;
4616;SDS011;2321;42.704;23.384;2022-08-21T03:50:43;13.17;;;7.00;;
4616;SDS011;2321;42.704;23.384;2022-08-21T03:53:12;8.63;;;5.47;;
4616;SDS011;2321;42.704;23.384;2022-08-21T03:55:42;10.40;;;6.17;;
4616;SDS011;2321;42.704;23.384;2022-08-21T03:58:09;8.17;;;5.50;;
4616;SDS011;2321;42.704;23.384;2022-08-21T04:00:36;4.80;;;4.20;;
4616;SDS011;2321;42.704;23.384;2022-08-21T04:03:04;8.73;;;5.60;;
4616;SDS011;2321;42.704;23.384;2022-08-21T04:05:31;5.77;;;4.47;;
4616;SDS011;2321;42.704;23.384;2022-08-21T04:08:00;4.80;;;4.03;;
4616;SDS011;2321;42.704;23.384;2022-08-21T04:10:29;4.87;;;4.13;;
4616;SDS011;2321;42.704;23.384;2022-08-21T04:12:59;9.80;;;5.40;;
4616;SDS011;2321;42.704;23.384;2022-08-21T04:15:26;7.60;;;4.80;;
4616;SDS011;2321;42.704;23.384;2022-08-21T04:17:54;6.60;;;5.00;;
4616;SDS011;2321;42.704;23.384;2022-08-21T04:20:22;5.30;;;4.40;;
4616;SDS011;2321;42.704;23.384;2022-08-21T04:22:50;5.63;;;4.60;;
4616;SDS011;2321;42.704;23.384;2022-08-21T04:25:18;6.03;;;4.40;;
4616;SDS011;2321;42.704;23.384;2022-08-21T04:27:46;14.90;;;5.30;;
4616;SDS011;2321;42.704;23.384;2022-08-21T04:30:15;4.93;;;4.33;;
4616;SDS011;2321;42.704;23.384;2022-08-21T04:32:43;9.33;;;5.30;;
4616;SDS011;2321;42.704;23.384;2022-08-21T04:35:11;13.73;;;6.40;;
4616;SDS011;2321;42.704;23.384;2022-08-21T04:37:40;5.57;;;4.23;;
4616;SDS011;2321;42.704;23.384;2022-08-21T04:40:08;11.20;;;5.27;;
4616;SDS011;2321;42.704;23.384;2022-08-21T04:42:40;6.00;;;3.43;;
4616;SDS011;2321;42.704;23.384;2022-08-21T04:45:16;6.00;;;5.00;;
4616;SDS011;2321;42.704;23.384;2022-08-21T04:47:47;8.73;;;5.33;;
4616;SDS011;2321;42.704;23.384;2022-08-21T04:50:15;11.67;;;6.40;;
4616;SDS011;2321;42.704;23.384;2022-08-21T04:52:42;6.03;;;4.40;;
4616;SDS011;2321;42.704;23.384;2022-08-21T04:55:10;10.13;;;5.83;;
4616;SDS011;2321;42.704;23.384;2022-08-21T04:57:37;9.47;;;4.60;;
4616;SDS011;2321;42.704;23.384;2022-08-21T05:00:06;5.90;;;4.60;;
4616;SDS011;2321;42.704;23.384;2022-08-21T05:02:37;9.70;;;4.90;;
4616;SDS011;2321;42.704;23.384;2022-08-21T05:05:06;8.93;;;5.50;;
4616;SDS011;2321;42.704;23.384;2022-08-21T05:07:33;11.57;;;5.57;;
4616;SDS011;2321;42.704;23.384;2022-08-21T05:10:01;7.83;;;4.50;;
4616;SDS011;2321;42.704;23.384;2022-08-21T05:12:30;10.53;;;5.90;;
4616;SDS011;2321;42.704;23.384;2022-08-21T05:14:58;10.63;;;6.10;;
4616;SDS011;2321;42.704;23.384;2022-08-21T05:17:25;12.53;;;5.67;;
4616;SDS011;2321;42.704;23.384;2022-08-21T05:19:54;10.93;;;4.90;;
4616;SDS011;2321;42.704;23.384;2022-08-21T05:22:21;12.10;;;6.17;;
4616;SDS011;2321;42.704;23.384;2022-08-21T05:24:49;11.63;;;6.20;;
4616;SDS011;2321;42.704;23.384;2022-08-21T05:27:17;9.93;;;6.23;;
4616;SDS011;2321;42.704;23.384;2022-08-21T05:29:44;6.90;;;5.77;;
4616;SDS011;2321;42.704;23.384;2022-08-21T05:32:12;9.10;;;4.93;;
4616;SDS011;2321;42.704;23.384;2022-08-21T05:34:40;6.57;;;4.80;;
4616;SDS011;2321;42.704;23.384;2022-08-21T05:37:09;7.90;;;5.17;;
4616;SDS011;2321;42.704;23.384;2022-08-21T05:39:38;7.50;;;5.23;;
4616;SDS011;2321;42.704;23.384;2022-08-21T05:42:05;6.73;;;4.77;;
4616;SDS011;2321;42.704;23.384;2022-08-21T05:44:33;18.60;;;5.33;;
4616;SDS011;2321;42.704;23.384;2022-08-21T05:47:02;9.63;;;5.27;;
4616;SDS011;2321;42.704;23.384;2022-08-21T05:49:30;6.90;;;5.13;;
4616;SDS011;2321;42.704;23.384;2022-08-21T05:51:57;6.13;;;4.40;;
4616;SDS011;2321;42.704;23.384;2022-08-21T05:54:25;8.70;;;5.63;;
4616;SDS011;2321;42.704;23.384;2022-08-21T05:56:52;11.83;;;5.33;;
4616;SDS011;2321;42.704;23.384;2022-08-21T05:59:20;8.97;;;5.00;;
4616;SDS011;2321;42.704;23.384;2022-08-21T06:01:47;6.70;;;5.50;;
4616;SDS011;2321;42.704;23.384;2022-08-21T06:04:16;7.53;;;4.63;;
4616;SDS011;2321;42.704;23.384;2022-08-21T06:06:43;9.37;;;6.30;;
4616;SDS011;2321;42.704;23.384;2022-08-21T06:09:12;7.73;;;4.60;;
4616;SDS011;2321;42.704;23.384;2022-08-21T06:11:41;7.30;;;4.90;;
4616;SDS011;2321;42.704;23.384;2022-08-21T06:14:08;11.03;;;5.30;;
4616;SDS011;2321;42.704;23.384;2022-08-21T06:16:35;8.07;;;4.67;;
4616;SDS011;2321;42.704;23.384;2022-08-21T06:19:02;4.80;;;4.03;;
4616;SDS011;2321;42.704;23.384;2022-08-21T06:21:29;4.43;;;4.03;;
4616;SDS011;2321;42.704;23.384;2022-08-21T06:23:56;7.70;;;4.90;;
4616;SDS011;2321;42.704;23.384;2022-08-21T06:26:23;11.43;;;5.30;;
4616;SDS011;2321;42.704;23.384;2022-08-21T06:28:51;7.17;;;5.20;;
4616;SDS011;2321;42.704;23.384;2022-08-21T06:31:20;11.77;;;5.20;;
4616;SDS011;2321;42.704;23.384;2022-08-21T06:33:48;6.17;;;4.93;;
4616;SDS011;2321;42.704;23.384;2022-08-21T06:36:16;8.23;;;5.33;;
4616;SDS011;2321;42.704;23.384;2022-08-21T06:38:43;6.33;;;5.37;;
4616;SDS011;2321;42.704;23.384;2022-08-21T06:41:10;7.30;;;5.07;;
4616;SDS011;2321;42.704;23.384;2022-08-21T06:43:37;7.17;;;4.80;;
4616;SDS011;2321;42.704;23.384;2022-08-21T06:46:06;9.53;;;5.70;;
4616;SDS011;2321;42.704;23.384;2022-08-21T06:48:33;10.50;;;6.77;;
4616;SDS011;2321;42.704;23.384;2022-08-21T06:51:00;11.63;;;6.17;;
4616;SDS011;2321;42.704;23.384;2022-08-21T06:53:28;7.20;;;5.63;;
4616;SDS011;2321;42.704;23.384;2022-08-21T06:55:55;7.73;;;5.40;;
4616;SDS011;2321;42.704;23.384;2022-08-21T06:58:22;11.03;;;6.03;;
4616;SDS011;2321;42.704;23.384;2022-08-21T07:00:49;13.23;;;5.17;;
4616;SDS011;2321;42.704;23.384;2022-08-21T07:03:20;10.10;;;4.80;;
4616;SDS011;2321;42.704;23.384;2022-08-21T07:05:49;7.20;;;5.03;;
4616;SDS011;2321;42.704;23.384;2022-08-21T07:08:16;8.40;;;6.23;;
4616;SDS011;2321;42.704;23.384;2022-08-21T07:10:43;7.53;;;4.87;;
4616;SDS011;2321;42.704;23.384;2022-08-21T07:13:12;4.87;;;3.87;;
4616;SDS011;2321;42.704;23.384;2022-08-21T07:15:39;12.43;;;5.37;;
4616;SDS011;2321;42.704;23.384;2022-08-21T07:18:07;6.53;;;4.30;;
4616;SDS011;2321;42.704;23.384;2022-08-21T07:20:35;7.63;;;4.50;;
4616;SDS011;2321;42.704;23.384;2022-08-21T07:23:04;6.23;;;4.73;;
4616;SDS011;2321;42.704;23.384;2022-08-21T07:25:34;6.23;;;4.43;;
4616;SDS011;2321;42.704;23.384;2022-08-21T07:28:01;6.57;;;4.37;;
4616;SDS011;2321;42.704;23.384;2022-08-21T07:30:28;5.83;;;3.60;;
4616;SDS011;2321;42.704;23.384;2022-08-21T07:32:56;7.90;;;4.50;;
4616;SDS011;2321;42.704;23.384;2022-08-21T07:35:23;7.80;;;4.40;;
4616;SDS011;2321;42.704;23.384;2022-08-21T07:37:52;7.90;;;4.73;;
4616;SDS011;2321;42.704;23.384;2022-08-21T07:40:20;6.77;;;4.10;;
4616;SDS011;2321;42.704;23.384;2022-08-21T07:42:47;4.63;;;3.60;;
4616;SDS011;2321;42.704;23.384;2022-08-21T07:45:17;4.07;;;3.63;;
4616;SDS011;2321;42.704;23.384;2022-08-21T07:47:45;6.33;;;3.90;;
4616;SDS011;2321;42.704;23.384;2022-08-21T07:50:13;4.00;;;3.03;;
4616;SDS011;2321;42.704;23.384;2022-08-21T07:52:41;6.43;;;4.00;;
4616;SDS011;2321;42.704;23.384;2022-08-21T07:55:11;9.07;;;4.33;;
4616;SDS011;2321;42.704;23.384;2022-08-21T07:57:40;5.50;;;4.47;;
4616;SDS011;2321;42.704;23.384;2022-08-21T08:00:08;6.93;;;4.47;;
4616;SDS011;2321;42.704;23.384;2022-08-21T08:02:37;10.53;;;3.93;;
4616;SDS011;2321;42.704;23.384;2022-08-21T08:05:05;4.30;;;3.60;;
4616;SDS011;2321;42.704;23.384;2022-08-21T08:07:34;5.80;;;3.80;;
4616;SDS011;2321;42.704;23.384;2022-08-21T08:10:01;6.77;;;4.73;;
4616;SDS011;2321;42.704;23.384;2022-08-21T08:12:30;5.63;;;4.23;;
4616;SDS011;2321;42.704;23.384;2022-08-21T08:14:57;7.73;;;5.07;;
4616;SDS011;2321;42.704;23.384;2022-08-21T08:17:25;6.97;;;4.60;;
4616;SDS011;2321;42.704;23.384;2022-08-21T08:19:52;3.10;;;2.90;;
4616;SDS011;2321;42.704;23.384;2022-08-21T08:22:20;4.77;;;4.37;;
4616;SDS011;2321;42.704;23.384;2022-08-21T08:24:49;3.93;;;3.47;;
4616;SDS011;2321;42.704;23.384;2022-08-21T08:27:17;3.60;;;3.30;;
4616;SDS011;2321;42.704;23.384;2022-08-21T08:29:47;5.70;;;4.13;;
4616;SDS011;2321;42.704;23.384;2022-08-21T08:32:14;5.20;;;4.20;;
4616;SDS011;2321;42.704;23.384;2022-08-21T08:34:41;5.00;;;3.67;;
4616;SDS011;2321;42.704;23.384;2022-08-21T08:37:08;4.70;;;3.80;;
4616;SDS011;2321;42.704;23.384;2022-08-21T08:39:36;6.63;;;3.53;;
4616;SDS011;2321;42.704;23.384;2022-08-21T08:42:04;5.50;;;3.53;;
4616;SDS011;2321;42.704;23.384;2022-08-21T08:44:35;4.60;;;3.80;;
4616;SDS011;2321;42.704;23.384;2022-08-21T08:47:03;3.00;;;2.80;;
4616;SDS011;2321;42.704;23.384;2022-08-21T08:49:33;7.63;;;3.50;;
4616;SDS011;2321;42.704;23.384;2022-08-21T08:52:05;5.97;;;4.17;;
4616;SDS011;2321;42.704;23.384;2022-08-21T08:54:39;3.50;;;3.20;;
4616;SDS011;2321;42.704;23.384;2022-08-21T08:57:14;3.70;;;3.40;;
4616;SDS011;2321;42.704;23.384;2022-08-21T08:59:44;4.60;;;2.90;;
4616;SDS011;2321;42.704;23.384;2022-08-21T09:02:16;4.83;;;3.47;;
4616;SDS011;2321;42.704;23.384;2022-08-21T09:04:45;3.80;;;3.47;;
4616;SDS011;2321;42.704;23.384;2022-08-21T09:07:16;3.90;;;3.50;;
4616;SDS011;2321;42.704;23.384;2022-08-21T09:12:39;6.77;;;3.77;;
4616;SDS011;2321;42.704;23.384;2022-08-21T09:15:17;5.03;;;3.77;;
4616;SDS011;2321;42.704;23.384;2022-08-21T09:18:04;7.83;;;3.40;;
4616;SDS011;2321;42.704;23.384;2022-08-21T09:20:46;8.23;;;3.80;;
4616;SDS011;2321;42.704;23.384;2022-08-21T09:23:24;3.40;;;3.03;;
4616;SDS011;2321;42.704;23.384;2022-08-21T09:26:02;5.10;;;3.27;;
4616;SDS011;2321;42.704;23.384;2022-08-21T09:28:33;7.10;;;3.10;;
4616;SDS011;2321;42.704;23.384;2022-08-21T09:31:02;3.50;;;3.13;;
4616;SDS011;2321;42.704;23.384;2022-08-21T09:33:33;3.70;;;3.40;;
4616;SDS011;2321;42.704;23.384;2022-08-21T09:36:01;3.30;;;3.10;;
4616;SDS011;2321;42.704;23.384;2022-08-21T09:38:29;3.50;;;3.20;;
4616;SDS011;2321;42.704;23.384;2022-08-21T09:40:59;2.57;;;2.47;;
4616;SDS011;2321;42.704;23.384;2022-08-21T09:43:29;4.13;;;3.80;;
4616;SDS011;2321;42.704;23.384;2022-08-21T09:46:04;3.60;;;3.33;;
4616;SDS011;2321;42.704;23.384;2022-08-21T09:48:43;4.10;;;3.23;;
4616;SDS011;2321;42.704;23.384;2022-08-21T09:51:13;2.90;;;2.70;;
4616;SDS011;2321;42.704;23.384;2022-08-21T09:53:43;2.57;;;2.40;;
4616;SDS011;2321;42.704;23.384;2022-08-21T09:56:17;2.63;;;2.53;;
4616;SDS011;2321;42.704;23.384;2022-08-21T09:59:12;5.73;;;3.33;;
4616;SDS011;2321;42.704;23.384;2022-08-21T10:01:42;3.00;;;2.83;;
4616;SDS011;2321;42.704;23.384;2022-08-21T10:04:12;3.47;;;3.00;;
4616;SDS011;2321;42.704;23.384;2022-08-21T10:06:39;2.80;;;2.60;;
4616;SDS011;2321;42.704;23.384;2022-08-21T10:09:08;3.23;;;3.03;;
4616;SDS011;2321;42.704;23.384;2022-08-21T10:11:37;4.90;;;3.00;;
4616;SDS011;2321;42.704;23.384;2022-08-21T10:14:08;3.93;;;3.43;;
4616;SDS011;2321;42.704;23.384;2022-08-21T10:16:47;2.70;;;2.50;;
4616;SDS011;2321;42.704;23.384;2022-08-21T10:19:33;6.50;;;2.90;;
4616;SDS011;2321;42.704;23.384;2022-08-21T10:22:08;3.20;;;3.00;;
4616;SDS011;2321;42.704;23.384;2022-08-21T10:24:49;9.10;;;2.77;;
4616;SDS011;2321;42.704;23.384;2022-08-21T10:27:27;3.00;;;2.80;;
4616;SDS011;2321;42.704;23.384;2022-08-21T10:30:04;4.70;;;2.73;;
4616;SDS011;2321;42.704;23.384;2022-08-21T10:32:40;3.07;;;2.87;;
4616;SDS011;2321;42.704;23.384;2022-08-21T10:35:21;5.40;;;3.23;;
4616;SDS011;2321;42.704;23.384;2022-08-21T10:38:02;3.87;;;3.13;;
4616;SDS011;2321;42.704;23.384;2022-08-21T10:40:58;2.90;;;2.70;;
4616;SDS011;2321;42.704;23.384;2022-08-21T10:43:38;3.40;;;3.10;;
4616;SDS011;2321;42.704;23.384;2022-08-21T10:46:13;3.37;;;3.07;;
4616;SDS011;2321;42.704;23.384;2022-08-21T10:48:47;3.53;;;3.20;;
4616;SDS011;2321;42.704;23.384;2022-08-21T10:51:22;3.37;;;2.60;;
4616;SDS011;2321;42.704;23.384;2022-08-21T10:53:59;3.07;;;2.77;;
4616;SDS011;2321;42.704;23.384;2022-08-21T10:56:33;2.93;;;2.63;;
4616;SDS011;2321;42.704;23.384;2022-08-21T10:59:07;4.23;;;3.40;;
4616;SDS011;2321;42.704;23.384;2022-08-21T11:01:50;3.47;;;3.13;;
4616;SDS011;2321;42.704;23.384;2022-08-21T11:04:24;4.70;;;2.87;;
4616;SDS011;2321;42.704;23.384;2022-08-21T11:06:59;2.83;;;2.73;;
4616;SDS011;2321;42.704;23.384;2022-08-21T11:09:30;2.47;;;2.33;;
4616;SDS011;2321;42.704;23.384;2022-08-21T11:11:58;3.43;;;2.63;;
4616;SDS011;2321;42.704;23.384;2022-08-21T11:14:34;10.10;;;2.67;;
4616;SDS011;2321;42.704;23.384;2022-08-21T11:17:16;2.67;;;2.47;;
4616;SDS011;2321;42.704;23.384;2022-08-21T11:19:48;4.30;;;2.73;;
4616;SDS011;2321;42.704;23.384;2022-08-21T11:22:23;2.63;;;2.43;;
4616;SDS011;2321;42.704;23.384;2022-08-21T11:24:55;2.43;;;2.20;;
4616;SDS011;2321;42.704;23.384;2022-08-21T11:27:28;2.20;;;2.10;;
4616;SDS011;2321;42.704;23.384;2022-08-21T11:30:00;2.30;;;2.20;;
4616;SDS011;2321;42.704;23.384;2022-08-21T11:32:31;2.77;;;2.63;;
4616;SDS011;2321;42.704;23.384;2022-08-21T11:35:26;4.40;;;4.03;;
4616;SDS011;2321;42.704;23.384;2022-08-21T11:38:07;2.73;;;2.60;;
4616;SDS011;2321;42.704;23.384;2022-08-21T11:40:46;2.50;;;2.30;;
4616;SDS011;2321;42.704;23.384;2022-08-21T11:43:28;2.20;;;2.10;;
4616;SDS011;2321;42.704;23.384;2022-08-21T11:46:08;4.93;;;3.30;;
4616;SDS011;2321;42.704;23.384;2022-08-21T11:48:43;3.20;;;2.03;;
4616;SDS011;2321;42.704;23.384;2022-08-21T11:51:18;3.27;;;2.93;;
4616;SDS011;2321;42.704;23.384;2022-08-21T11:53:51;3.50;;;3.20;;
4616;SDS011;2321;42.704;23.384;2022-08-21T11:56:30;2.87;;;2.70;;
4616;SDS011;2321;42.704;23.384;2022-08-21T11:59:03;3.50;;;3.20;;
4616;SDS011;2321;42.704;23.384;2022-08-21T12:01:36;5.50;;;3.10;;
4616;SDS011;2321;42.704;23.384;2022-08-21T12:04:16;4.10;;;3.37;;
4616;SDS011;2321;42.704;23.384;2022-08-21T12:06:48;4.00;;;3.13;;
4616;SDS011;2321;42.704;23.384;2022-08-21T12:12:02;2.63;;;2.53;;
4616;SDS011;2321;42.704;23.384;2022-08-21T12:14:39;3.33;;;3.03;;
4616;SDS011;2321;42.704;23.384;2022-08-21T12:17:08;2.63;;;2.50;;
4616;SDS011;2321;42.704;23.384;2022-08-21T12:19:44;3.17;;;2.97;;
4616;SDS011;2321;42.704;23.384;2022-08-21T12:22:12;7.40;;;3.93;;
4616;SDS011;2321;42.704;23.384;2022-08-21T12:24:42;3.50;;;3.20;;
4616;SDS011;2321;42.704;23.384;2022-08-21T12:27:21;3.30;;;2.90;;
4616;SDS011;2321;42.704;23.384;2022-08-21T12:29:54;5.70;;;3.87;;
4616;SDS011;2321;42.704;23.384;2022-08-21T12:32:26;3.20;;;2.90;;
4616;SDS011;2321;42.704;23.384;2022-08-21T12:34:55;4.90;;;3.57;;
4616;SDS011;2321;42.704;23.384;2022-08-21T12:37:30;3.27;;;3.03;;
4616;SDS011;2321;42.704;23.384;2022-08-21T12:40:09;3.60;;;2.83;;
4616;SDS011;2321;42.704;23.384;2022-08-21T12:42:40;3.00;;;2.80;;
4616;SDS011;2321;42.704;23.384;2022-08-21T12:45:17;4.90;;;3.40;;
4616;SDS011;2321;42.704;23.384;2022-08-21T12:47:47;9.00;;;3.00;;
4616;SDS011;2321;42.704;23.384;2022-08-21T12:50:19;3.50;;;2.47;;
4616;SDS011;2321;42.704;23.384;2022-08-21T12:52:54;3.00;;;2.80;;
4616;SDS011;2321;42.704;23.384;2022-08-21T12:55:27;3.43;;;3.13;;
4616;SDS011;2321;42.704;23.384;2022-08-21T12:57:56;3.20;;;2.87;;
4616;SDS011;2321;42.704;23.384;2022-08-21T13:00:26;2.73;;;2.53;;
4616;SDS011;2321;42.704;23.384;2022-08-21T13:02:56;3.20;;;2.67;;
4616;SDS011;2321;42.704;23.384;2022-08-21T13:05:27;2.90;;;2.70;;
4616;SDS011;2321;42.704;23.384;2022-08-21T13:07:57;3.10;;;2.90;;
4616;SDS011;2321;42.704;23.384;2022-08-21T13:10:27;2.10;;;2.00;;
4616;SDS011;2321;42.704;23.384;2022-08-21T13:12:57;2.93;;;2.73;;
4616;SDS011;2321;42.704;23.384;2022-08-21T13:15:28;3.27;;;3.00;;
4616;SDS011;2321;42.704;23.384;2022-08-21T13:17:56;5.67;;;3.07;;
4616;SDS011;2321;42.704;23.384;2022-08-21T13:20:28;5.17;;;3.60;;
4616;SDS011;2321;42.704;23.384;2022-08-21T13:22:56;2.63;;;2.43;;
4616;SDS011;2321;42.704;23.384;2022-08-21T13:25:26;2.83;;;2.63;;
4616;SDS011;2321;42.704;23.384;2022-08-21T13:27:57;16.93;;;4.60;;
4616;SDS011;2321;42.704;23.384;2022-08-21T13:30:27;2.83;;;2.63;;
4616;SDS011;2321;42.704;23.384;2022-08-21T13:32:56;4.10;;;3.03;;
4616;SDS011;2321;42.704;23.384;2022-08-21T13:35:26;2.30;;;2.20;;
4616;SDS011;2321;42.704;23.384;2022-08-21T13:37:56;5.63;;;2.80;;
4616;SDS011;2321;42.704;23.384;2022-08-21T13:40:25;2.53;;;2.40;;
4616;SDS011;2321;42.704;23.384;2022-08-21T13:42:57;4.10;;;2.80;;
4616;SDS011;2321;42.704;23.384;2022-08-21T13:45:27;13.83;;;3.13;;
4616;SDS011;2321;42.704;23.384;2022-08-21T13:47:57;3.87;;;3.00;;
4616;SDS011;2321;42.704;23.384;2022-08-21T13:50:26;4.33;;;3.13;;
4616;SDS011;2321;42.704;23.384;2022-08-21T13:52:56;4.93;;;3.17;;
4616;SDS011;2321;42.704;23.384;2022-08-21T13:55:25;3.40;;;3.10;;
4616;SDS011;2321;42.704;23.384;2022-08-21T13:58:04;2.87;;;2.67;;
4616;SDS011;2321;42.704;23.384;2022-08-21T14:00:32;3.53;;;2.93;;
4616;SDS011;2321;42.704;23.384;2022-08-21T14:03:05;3.57;;;2.80;;
4616;SDS011;2321;42.704;23.384;2022-08-21T14:05:36;5.90;;;3.17;;
4616;SDS011;2321;42.704;23.384;2022-08-21T14:08:06;4.57;;;3.20;;
4616;SDS011;2321;42.704;23.384;2022-08-21T14:10:37;3.73;;;2.57;;
4616;SDS011;2321;42.704;23.384;2022-08-21T14:13:26;6.90;;;2.70;;
4616;SDS011;2321;42.704;23.384;2022-08-21T14:15:59;2.93;;;2.70;;
4616;SDS011;2321;42.704;23.384;2022-08-21T14:18:28;3.20;;;2.90;;
4616;SDS011;2321;42.704;23.384;2022-08-21T14:21:03;2.77;;;2.50;;
4616;SDS011;2321;42.704;23.384;2022-08-21T14:23:32;2.70;;;2.60;;
4616;SDS011;2321;42.704;23.384;2022-08-21T14:25:59;3.53;;;3.30;;
4616;SDS011;2321;42.704;23.384;2022-08-21T14:28:30;3.00;;;2.70;;
4616;SDS011;2321;42.704;23.384;2022-08-21T14:30:59;2.77;;;2.57;;
4616;SDS011;2321;42.704;23.384;2022-08-21T14:33:38;3.37;;;3.07;;
4616;SDS011;2321;42.704;23.384;2022-08-21T14:36:05;2.80;;;2.60;;
4616;SDS011;2321;42.704;23.384;2022-08-21T14:38:34;2.93;;;2.60;;
4616;SDS011;2321;42.704;23.384;2022-08-21T14:41:04;3.30;;;3.10;;
4616;SDS011;2321;42.704;23.384;2022-08-21T14:43:39;3.10;;;2.90;;
4616;SDS011;2321;42.704;23.384;2022-08-21T14:46:06;4.00;;;2.90;;
4616;SDS011;2321;42.704;23.384;2022-08-21T14:48:33;4.47;;;2.80;;
4616;SDS011;2321;42.704;23.384;2022-08-21T14:51:00;2.77;;;2.53;;
4616;SDS011;2321;42.704;23.384;2022-08-21T14:53:27;4.67;;;2.90;;
4616;SDS011;2321;42.704;23.384;2022-08-21T14:55:54;7.67;;;3.17;;
4616;SDS011;2321;42.704;23.384;2022-08-21T14:58:33;2.57;;;2.37;;
4616;SDS011;2321;42.704;23.384;2022-08-21T15:01:04;2.60;;;2.40;;
4616;SDS011;2321;42.704;23.384;2022-08-21T15:03:32;2.60;;;2.50;;
4616;SDS011;2321;42.704;23.384;2022-08-21T15:06:00;3.50;;;2.60;;
4616;SDS011;2321;42.704;23.384;2022-08-21T15:08:27;5.20;;;2.77;;
4616;SDS011;2321;42.704;23.384;2022-08-21T15:10:54;3.20;;;2.63;;
4616;SDS011;2321;42.704;23.384;2022-08-21T15:13:22;10.90;;;2.43;;
4616;SDS011;2321;42.704;23.384;2022-08-21T15:15:49;3.17;;;2.70;;
4616;SDS011;2321;42.704;23.384;2022-08-21T15:18:19;3.20;;;2.90;;
4616;SDS011;2321;42.704;23.384;2022-08-21T15:20:47;2.67;;;2.47;;